Terminal Aerodrome Forecast
Issued by NWS

Home | Current Version | Previous Version | Text Only | Print | Product List | Glossary On
Versions: 1 2 3 4 5 6 7 8 9 10 11 12 13 14 15 16 17 18 19 20 21 22 23 24
000
FTUS45 KGJT 211134
TAFASE
TAF
KASE 211134Z 2112/2212 20004KT P6SM SCT200
     FM211500 VRB03KT P6SM SCT200
     FM211800 35004KT P6SM FEW090 SCT200
     FM212000 33008KT P6SM FEW090 SCT150
     FM220200 13007KT P6SM SCT080 BKN100
     FM220700 15005KT P6SM FEW080 SCT100=

USA.gov is the U.S. government's official web portal to all federal, state and local government web resources and services.